Time;durP1;ratioP1;P1;durP2;ratioP2;P2;SDS_P1;SDS_P2;PMS_P1;PMS_P2;Temp;Humidity;BMP_temperature;BMP_pressure;BME280_temperature;BME280_humidity;BME280_pressure;Samples;Min_cycle;Max_cycle;Signal;HPM_P1;HPM_P2
2022/09/21 00:00:25;;;;;;;9.00;3.30;;;8.80;99.90;;;;;;5071021;28;20048;-61
2022/09/21 00:02:54;;;;;;;6.00;2.97;;;8.80;99.90;;;;;;5071570;28;20037;-61
2022/09/21 00:05:19;;;;;;;7.93;3.38;;;8.70;99.90;;;;;;5071447;28;20044;-61
2022/09/21 00:07:45;;;;;;;7.20;3.70;;;8.70;99.90;;;;;;5071751;28;20047;-62
2022/09/21 00:10:11;;;;;;;6.95;2.83;;;8.60;99.90;;;;;;5072124;28;20043;-62
2022/09/21 00:12:39;;;;;;;7.15;3.63;;;8.60;99.90;;;;;;5071358;28;20090;-62
2022/09/21 00:15:06;;;;;;;8.55;3.35;;;8.60;99.90;;;;;;5071412;28;20047;-62
2022/09/21 00:17:33;;;;;;;7.97;3.33;;;8.60;99.90;;;;;;5070752;28;20037;-62
2022/09/21 00:20:00;;;;;;;5.57;3.05;;;8.50;99.90;;;;;;5070876;28;20435;-62
2022/09/21 00:22:26;;;;;;;7.28;3.10;;;8.50;99.90;;;;;;5080398;28;20056;-62
2022/09/21 00:24:52;;;;;;;6.90;2.92;;;8.50;99.90;;;;;;5056649;28;20040;-62
2022/09/21 00:27:17;;;;;;;5.53;2.90;;;8.50;99.90;;;;;;5091253;28;20032;-62
2022/09/21 00:29:43;;;;;;;10.25;2.97;;;8.50;99.90;;;;;;5092100;28;20044;-62
2022/09/21 00:32:09;;;;;;;6.18;2.83;;;8.40;99.90;;;;;;5073673;28;20063;-61
2022/09/21 00:34:35;;;;;;;7.82;3.30;;;8.40;99.90;;;;;;5073262;28;20071;-62
2022/09/21 00:37:01;;;;;;;6.63;2.85;;;8.40;99.90;;;;;;5073310;28;20051;-62
2022/09/21 00:39:27;;;;;;;6.13;2.53;;;8.40;99.90;;;;;;5074195;28;20036;-61
2022/09/21 00:41:53;;;;;;;5.95;2.92;;;8.40;99.90;;;;;;5072730;28;20079;-61
2022/09/21 00:44:32;;;;;;;8.00;3.28;;;8.40;99.90;;;;;;5073702;28;20067;-62
2022/09/21 00:47:11;;;;;;;5.90;2.83;;;8.40;99.90;;;;;;5090905;28;20036;-61
2022/09/21 00:49:38;;;;;;;7.30;3.13;;;8.30;99.90;;;;;;5091992;28;20575;-62
2022/09/21 00:52:06;;;;;;;6.50;3.08;;;8.30;99.90;;;;;;5091270;28;20118;-62
2022/09/21 00:54:43;;;;;;;8.70;2.92;;;8.20;99.90;;;;;;5090971;28;20050;-61
2022/09/21 00:57:10;;;;;;;7.18;3.05;;;8.30;99.90;;;;;;5091271;28;20083;-61
2022/09/21 00:59:37;;;;;;;6.80;3.65;;;8.30;99.90;;;;;;5073747;28;20073;-61
2022/09/21 01:02:04;;;;;;;6.90;3.15;;;8.30;99.90;;;;;;5075108;28;20488;-61
2022/09/21 01:04:30;;;;;;;5.60;2.75;;;8.30;99.90;;;;;;5095579;28;20054;-61
2022/09/21 01:07:00;;;;;;;7.32;3.17;;;8.20;99.90;;;;;;5094735;28;20036;-62
2022/09/21 01:09:26;;;;;;;6.40;2.50;;;8.20;99.90;;;;;;5094475;28;20055;-61
2022/09/21 01:12:06;;;;;;;8.70;3.13;;;8.20;99.90;;;;;;5094977;28;20048;-62
2022/09/21 01:14:54;;;;;;;5.72;2.28;;;8.20;99.90;;;;;;5095300;28;20048;-62
2022/09/21 01:17:43;;;;;;;5.07;2.35;;;8.20;99.90;;;;;;5076789;28;20044;-61
2022/09/21 01:20:45;;;;;;;5.20;2.55;;;8.10;99.90;;;;;;5039562;28;20515;-61
2022/09/21 01:23:23;;;;;;;6.95;2.92;;;8.10;99.90;;;;;;5094233;28;20096;-62
2022/09/21 01:25:54;;;;;;;5.55;2.70;;;8.10;99.90;;;;;;5094565;28;20072;-62
2022/09/21 01:28:57;;;;;;;7.88;2.70;;;8.00;99.90;;;;;;5076921;28;20373;-62
2022/09/21 01:31:29;;;;;;;6.20;2.50;;;8.10;99.90;;;;;;5094476;28;20118;-62
2022/09/21 01:34:04;;;;;;;7.63;3.97;;;8.10;99.90;;;;;;5094622;28;20396;-61
2022/09/21 01:36:32;;;;;;;10.15;3.42;;;8.00;99.90;;;;;;5093912;28;20404;-61
2022/09/21 01:39:10;;;;;;;7.18;2.90;;;8.10;99.90;;;;;;5094248;28;20476;-62
2022/09/21 01:41:39;;;;;;;7.95;3.28;;;8.10;99.90;;;;;;5094848;28;20382;-61
2022/09/21 01:44:22;;;;;;;7.18;2.85;;;8.10;99.90;;;;;;5075639;28;20401;-61
2022/09/21 01:46:48;;;;;;;8.10;3.20;;;8.20;99.90;;;;;;5094117;28;20055;-61
2022/09/21 01:49:20;;;;;;;8.57;3.00;;;8.10;99.90;;;;;;5094375;28;20040;-62
2022/09/21 01:51:54;;;;;;;8.65;3.22;;;8.10;99.90;;;;;;5093424;28;20063;-62
2022/09/21 01:54:27;;;;;;;6.72;2.95;;;8.10;99.90;;;;;;5076431;28;20511;-61
2022/09/21 01:56:59;;;;;;;6.28;2.67;;;8.10;99.90;;;;;;5093829;28;20504;-61
2022/09/21 01:59:50;;;;;;;5.00;2.53;;;8.00;99.90;;;;;;5075569;28;20048;-61
2022/09/21 02:02:22;;;;;;;5.32;2.15;;;8.00;99.90;;;;;;5076220;28;20080;-61
2022/09/21 02:04:49;;;;;;;6.38;2.65;;;7.90;99.90;;;;;;5092841;28;20544;-61
2022/09/21 02:07:16;;;;;;;4.88;2.40;;;7.90;99.90;;;;;;5076250;28;20121;-62
2022/09/21 02:09:42;;;;;;;7.15;2.42;;;7.90;99.90;;;;;;5076001;28;20051;-62
2022/09/21 02:12:08;;;;;;;6.32;2.40;;;7.90;99.90;;;;;;5091894;28;20036;-61
2022/09/21 02:14:36;;;;;;;6.97;2.42;;;7.80;99.90;;;;;;5094215;28;20047;-62
2022/09/21 02:17:06;;;;;;;7.47;2.80;;;7.80;99.90;;;;;;5075394;28;20055;-61
2022/09/21 02:19:47;;;;;;;8.63;2.60;;;7.80;99.90;;;;;;5058361;28;20042;-62
2022/09/21 02:22:34;;;;;;;5.47;2.35;;;7.80;99.90;;;;;;5075755;28;20055;-61
2022/09/21 02:25:17;;;;;;;5.40;2.53;;;7.80;99.90;;;;;;5093524;28;20036;-61
2022/09/21 02:28:06;;;;;;;7.78;2.33;;;7.70;99.90;;;;;;5093926;28;20043;-61
2022/09/21 02:30:33;;;;;;;5.80;2.00;;;7.70;99.90;;;;;;5093854;28;20071;-62
2022/09/21 02:33:21;;;;;;;6.82;2.55;;;7.70;99.90;;;;;;5074292;28;20052;-62
2022/09/21 02:35:56;;;;;;;7.32;2.75;;;7.70;99.90;;;;;;5075157;28;20044;-62
2022/09/21 02:38:50;;;;;;;7.30;2.60;;;7.60;99.90;;;;;;5093814;28;20044;-61
2022/09/21 02:41:18;;;;;;;5.07;2.25;;;7.60;99.90;;;;;;5074927;28;20063;-61
2022/09/21 02:43:56;;;;;;;8.63;2.95;;;7.60;99.90;;;;;;5093767;28;20089;-61
2022/09/21 02:46:27;;;;;;;4.57;2.20;;;7.60;99.90;;;;;;5074937;28;20036;-62
2022/09/21 02:49:08;;;;;;;6.68;2.88;;;7.60;99.90;;;;;;5092944;28;20050;-62
2022/09/21 02:51:42;;;;;;;5.68;2.45;;;7.50;99.90;;;;;;5093327;28;20086;-61
2022/09/21 02:54:12;;;;;;;7.65;2.30;;;7.50;99.90;;;;;;5092244;28;20067;-61
2022/09/21 02:56:41;;;;;;;6.03;2.67;;;7.50;99.90;;;;;;5093202;28;20044;-61
2022/09/21 02:59:07;;;;;;;8.07;2.97;;;7.50;99.90;;;;;;5092801;28;20044;-62
2022/09/21 03:01:33;;;;;;;6.88;2.63;;;7.60;99.90;;;;;;5092465;28;20085;-62
2022/09/21 03:03:59;;;;;;;6.78;2.70;;;7.60;99.90;;;;;;5074754;28;20431;-62
2022/09/21 03:06:28;;;;;;;7.43;2.90;;;7.50;99.90;;;;;;5074924;28;20040;-62
2022/09/21 03:08:54;;;;;;;6.88;2.67;;;7.50;99.90;;;;;;5091842;28;20042;-62
2022/09/21 03:11:19;;;;;;;5.28;2.53;;;7.50;99.90;;;;;;5074872;28;20119;-62
2022/09/21 03:13:45;;;;;;;6.43;2.83;;;7.50;99.90;;;;;;5074676;28;20040;-62
2022/09/21 03:16:11;;;;;;;6.32;2.53;;;7.50;99.90;;;;;;5091878;28;20373;-61
2022/09/21 03:18:39;;;;;;;7.60;2.67;;;7.60;99.90;;;;;;5074796;28;20043;-62
2022/09/21 03:21:05;;;;;;;5.47;2.72;;;7.60;99.90;;;;;;5092411;28;20205;-61
2022/09/21 03:23:30;;;;;;;5.22;2.25;;;7.50;99.90;;;;;;5073707;28;20105;-61
2022/09/21 03:25:56;;;;;;;6.47;2.75;;;7.50;99.90;;;;;;5074229;28;20044;-61
2022/09/21 03:28:22;;;;;;;6.65;2.45;;;7.60;99.90;;;;;;5093001;28;20044;-61
2022/09/21 03:30:49;;;;;;;5.68;2.17;;;7.60;99.90;;;;;;5073111;28;20082;-62
2022/09/21 03:33:16;;;;;;;6.80;2.85;;;7.50;99.90;;;;;;5092666;28;20093;-62
2022/09/21 03:35:42;;;;;;;6.22;2.80;;;7.60;99.90;;;;;;5091825;28;20507;-61
2022/09/21 03:38:08;;;;;;;6.95;2.35;;;7.50;99.90;;;;;;5092091;28;20051;-62
2022/09/21 03:40:34;;;;;;;5.78;2.58;;;7.50;99.90;;;;;;5074673;28;20036;-62
2022/09/21 03:43:00;;;;;;;5.57;2.28;;;7.50;99.90;;;;;;5091107;28;20089;-61
2022/09/21 03:45:26;;;;;;;5.47;2.33;;;7.50;99.90;;;;;;5092471;28;20040;-61
2022/09/21 03:47:55;;;;;;;6.05;2.42;;;7.50;99.90;;;;;;5091938;28;20036;-61
2022/09/21 03:50:22;;;;;;;9.98;2.78;;;7.50;99.90;;;;;;5073992;28;20048;-61
2022/09/21 03:52:48;;;;;;;5.60;2.40;;;7.50;99.90;;;;;;5092045;28;20392;-61
2022/09/21 03:55:13;;;;;;;6.07;2.13;;;7.50;99.90;;;;;;5092554;28;20040;-62
2022/09/21 03:57:39;;;;;;;8.32;2.60;;;7.40;99.90;;;;;;5073719;28;20480;-61
2022/09/21 04:00:07;;;;;;;5.93;2.50;;;7.40;99.90;;;;;;5073698;28;20073;-61
2022/09/21 04:02:34;;;;;;;6.82;2.70;;;7.40;99.90;;;;;;5074482;28;20048;-61
2022/09/21 04:04:59;;;;;;;5.75;3.03;;;7.30;99.90;;;;;;5091180;28;20047;-61
2022/09/21 04:07:25;;;;;;;7.45;2.83;;;7.30;99.90;;;;;;5092459;28;20423;-61
2022/09/21 04:09:52;;;;;;;6.07;2.60;;;7.30;99.90;;;;;;5091893;28;20135;-61
2022/09/21 04:12:21;;;;;;;5.57;2.60;;;7.30;99.90;;;;;;5073343;28;20562;-61
2022/09/21 04:14:48;;;;;;;7.10;2.80;;;7.30;99.90;;;;;;5091462;28;20093;-62
2022/09/21 04:17:14;;;;;;;6.32;2.97;;;7.30;99.90;;;;;;5074159;28;20040;-61
2022/09/21 04:19:39;;;;;;;8.30;3.15;;;7.30;99.90;;;;;;5073426;28;20051;-61
2022/09/21 04:22:05;;;;;;;5.95;3.28;;;7.30;99.90;;;;;;5091547;28;20044;-62
2022/09/21 04:24:31;;;;;;;5.95;2.78;;;7.30;99.90;;;;;;5092307;28;20103;-61
2022/09/21 04:26:57;;;;;;;5.38;2.65;;;7.30;99.90;;;;;;5090934;28;20144;-61
2022/09/21 04:29:22;;;;;;;7.25;2.58;;;7.30;99.90;;;;;;5057351;28;20048;-61
2022/09/21 04:31:48;;;;;;;7.07;2.58;;;7.30;99.90;;;;;;5091721;28;20040;-61
2022/09/21 04:34:15;;;;;;;6.45;2.30;;;7.30;99.90;;;;;;5073809;28;20450;-61
2022/09/21 04:36:40;;;;;;;5.88;2.40;;;7.30;99.90;;;;;;5076206;28;20052;-61
2022/09/21 04:39:06;;;;;;;8.95;2.83;;;7.30;99.90;;;;;;5094731;28;20103;-61
2022/09/21 04:41:32;;;;;;;5.57;2.50;;;7.20;99.90;;;;;;5077599;28;20036;-61
2022/09/21 04:43:58;;;;;;;5.63;2.28;;;7.30;99.90;;;;;;5077517;28;20047;-62
2022/09/21 04:46:23;;;;;;;10.30;3.00;;;7.20;99.90;;;;;;5095326;28;20036;-61
2022/09/21 04:48:49;;;;;;;8.48;2.38;;;7.20;99.90;;;;;;5095245;28;20032;-61
2022/09/21 04:51:16;;;;;;;4.65;2.20;;;7.20;99.90;;;;;;5077681;28;20062;-61
2022/09/21 04:53:43;;;;;;;7.05;2.17;;;7.20;99.90;;;;;;5076907;28;20035;-61
2022/09/21 04:56:12;;;;;;;6.80;2.50;;;7.10;99.90;;;;;;5076951;28;20051;-62
2022/09/21 04:58:38;;;;;;;6.40;2.20;;;7.20;99.90;;;;;;5095374;28;20508;-61
2022/09/21 05:01:05;;;;;;;6.68;2.70;;;7.10;99.90;;;;;;5094365;28;20065;-62
2022/09/21 05:03:31;;;;;;;7.93;2.72;;;7.10;99.90;;;;;;5077415;28;20080;-62
2022/09/21 05:05:57;;;;;;;5.63;2.75;;;7.10;99.90;;;;;;5095154;28;20043;-61
2022/09/21 05:11:12;;;;;;;4.95;2.30;;;7.10;99.90;;;;;;5094709;28;20055;-61
2022/09/21 05:13:39;;;;;;;6.13;2.80;;;7.10;99.90;;;;;;5060400;28;20051;-61
2022/09/21 05:16:05;;;;;;;7.07;2.67;;;7.10;99.90;;;;;;5093988;28;20079;-61
2022/09/21 05:18:31;;;;;;;7.72;2.22;;;7.10;99.90;;;;;;5076965;28;20052;-61
2022/09/21 05:20:58;;;;;;;8.18;2.63;;;7.10;99.90;;;;;;5094676;28;20039;-61
2022/09/21 05:23:24;;;;;;;7.38;2.80;;;7.00;99.90;;;;;;5076122;28;20408;-61
2022/09/21 05:25:50;;;;;;;6.15;2.65;;;7.00;99.90;;;;;;5094471;28;20040;-61
2022/09/21 05:28:17;;;;;;;8.30;3.25;;;7.00;99.90;;;;;;5094295;28;20036;-61
2022/09/21 05:30:45;;;;;;;5.90;2.40;;;7.00;99.90;;;;;;5095282;28;20044;-61
2022/09/21 05:33:18;;;;;;;7.22;2.60;;;6.90;99.90;;;;;;5076979;28;20115;-61
2022/09/21 05:36:05;;;;;;;7.43;2.92;;;6.90;99.90;;;;;;5076163;28;20115;-62
2022/09/21 05:38:31;;;;;;;8.32;3.00;;;6.90;99.90;;;;;;5076739;28;20119;-61
2022/09/21 05:40:57;;;;;;;7.45;3.45;;;6.90;99.90;;;;;;5076059;28;20051;-61
2022/09/21 05:43:23;;;;;;;9.68;3.45;;;6.90;99.90;;;;;;5076167;28;20047;-61
2022/09/21 05:46:04;;;;;;;7.18;2.90;;;6.90;99.90;;;;;;5094433;28;20476;-61
2022/09/21 05:48:39;;;;;;;5.40;2.85;;;7.00;99.90;;;;;;5093333;28;20045;-61
2022/09/21 05:51:35;;;;;;;7.10;3.10;;;7.00;99.90;;;;;;5075129;28;20040;-61
2022/09/21 05:54:06;;;;;;;5.72;2.90;;;7.00;99.90;;;;;;5057866;28;20040;-61
2022/09/21 05:56:47;;;;;;;6.72;3.00;;;7.00;99.90;;;;;;5075560;28;20047;-61
2022/09/21 05:59:44;;;;;;;8.07;3.20;;;7.10;99.90;;;;;;5091617;28;20036;-61
2022/09/21 06:02:51;;;;;;;6.38;2.78;;;7.20;99.90;;;;;;5074628;28;20051;-61
2022/09/21 06:05:17;;;;;;;7.97;2.92;;;7.20;99.90;;;;;;5028205;28;20049;-61
2022/09/21 06:07:43;;;;;;;5.93;2.88;;;7.30;99.90;;;;;;5045619;28;20068;-61
2022/09/21 06:10:11;;;;;;;6.45;2.92;;;7.30;99.90;;;;;;5071395;28;20102;-61
2022/09/21 06:12:36;;;;;;;7.38;3.10;;;7.30;99.90;;;;;;5071313;28;20457;-61
2022/09/21 06:15:04;;;;;;;7.50;3.17;;;7.40;99.90;;;;;;5074088;28;20075;-61
2022/09/21 06:17:31;;;;;;;6.10;2.63;;;7.40;99.90;;;;;;5071123;28;20127;-61
2022/09/21 06:19:56;;;;;;;7.00;2.90;;;7.40;99.90;;;;;;5082013;28;20209;-61
2022/09/21 06:22:22;;;;;;;6.65;2.80;;;7.50;99.90;;;;;;5098404;28;20602;-61
2022/09/21 07:01:44;;;;;;;;;;;8.80;99.90;;;;;;5077448;28;20082;-61
2022/09/21 07:04:10;;;;;;;8.13;3.40;;;9.00;99.90;;;;;;5072505;28;19920;-61
2022/09/21 07:06:35;;;;;;;7.07;2.92;;;9.00;99.90;;;;;;5088065;28;20044;-61
2022/09/21 07:09:02;;;;;;;10.32;2.83;;;9.10;99.90;;;;;;5088793;28;20036;-62
2022/09/21 07:11:27;;;;;;;8.07;2.90;;;9.30;99.90;;;;;;5069034;28;20146;-61
2022/09/21 07:13:54;;;;;;;11.73;3.38;;;9.40;99.90;;;;;;5085406;28;20111;-61
2022/09/21 07:16:20;;;;;;;6.10;2.58;;;9.50;99.90;;;;;;5064911;28;20426;-61
2022/09/21 07:18:47;;;;;;;6.50;2.67;;;9.60;99.90;;;;;;5080585;28;20100;-62
2022/09/21 07:21:13;;;;;;;6.28;2.70;;;9.70;99.90;;;;;;5060071;28;20380;-61
2022/09/21 07:23:39;;;;;;;6.05;2.80;;;9.80;99.90;;;;;;5088295;28;20411;-61
2022/09/21 07:26:10;;;;;;;8.13;3.03;;;9.90;99.90;;;;;;5088385;28;20036;-61
2022/09/21 07:28:36;;;;;;;5.28;2.50;;;10.00;99.90;;;;;;5089379;28;20093;-61
2022/09/21 07:31:12;;;;;;;7.57;2.80;;;10.10;99.90;;;;;;5089880;28;20123;-61
2022/09/21 07:33:39;;;;;;;6.35;3.13;;;10.20;99.90;;;;;;5090688;28;20039;-62
2022/09/21 07:36:11;;;;;;;7.80;2.80;;;10.30;99.90;;;;;;5081091;28;20045;-62
2022/09/21 07:38:42;;;;;;;5.75;2.58;;;10.40;99.90;;;;;;5060911;28;20071;-61
2022/09/21 07:41:12;;;;;;;12.75;2.83;;;10.50;99.90;;;;;;5071748;28;20397;-61
2022/09/21 07:43:39;;;;;;;9.55;3.08;;;10.60;99.90;;;;;;5090019;28;20036;-62
2022/09/21 07:46:09;;;;;;;13.35;4.60;;;10.70;99.90;;;;;;5071964;28;20039;-62
2022/09/21 07:48:36;;;;;;;10.30;3.25;;;10.90;99.90;;;;;;5088992;28;20684;-61
2022/09/21 07:51:04;;;;;;;6.85;2.53;;;11.00;99.90;;;;;;5088312;28;20046;-61
2022/09/21 07:53:31;;;;;;;8.68;3.28;;;11.20;99.90;;;;;;5054890;28;20044;-62
2022/09/21 07:56:05;;;;;;;5.47;2.65;;;11.30;99.90;;;;;;5072574;28;20370;-61
2022/09/21 08:01:16;;;;;;;8.65;2.92;;;11.60;99.90;;;;;;5071296;28;20072;-62
2022/09/21 08:03:42;;;;;;;9.23;2.53;;;11.70;99.90;;;;;;5071439;28;20048;-61
2022/09/21 08:06:08;;;;;;;6.22;2.50;;;11.90;99.90;;;;;;5079683;28;20080;-62
2022/09/21 08:08:34;;;;;;;6.65;2.38;;;12.00;99.90;;;;;;5065363;28;20040;-62
2022/09/21 08:11:04;;;;;;;6.90;2.50;;;12.10;99.90;;;;;;5057388;28;20044;-61
2022/09/21 08:13:30;;;;;;;7.85;3.08;;;12.20;99.90;;;;;;5091564;28;20045;-61
2022/09/21 08:16:00;;;;;;;9.05;3.33;;;12.40;99.90;;;;;;5068669;28;20094;-61
2022/09/21 08:18:27;;;;;;;7.65;2.60;;;12.50;99.90;;;;;;5086386;28;20044;-61
2022/09/21 08:21:00;;;;;;;6.75;2.05;;;12.60;99.90;;;;;;5059936;28;20082;-61
2022/09/21 08:23:29;;;;;;;5.03;1.70;;;12.70;99.90;;;;;;5072684;28;20078;-61
2022/09/21 08:26:04;;;;;;;8.05;2.40;;;12.80;99.90;;;;;;5086194;28;20037;-61
2022/09/21 08:28:30;;;;;;;;;;;12.90;99.90;;;;;;5072418;28;20088;-61
2022/09/21 08:31:04;;;;;;;10.32;3.55;;;13.00;99.90;;;;;;5084659;28;19920;-61
2022/09/21 08:33:30;;;;;;;10.20;3.83;;;13.00;99.90;;;;;;5064898;28;20039;-61
2022/09/21 08:35:58;;;;;;;4.95;1.60;;;13.10;99.90;;;;;;5087008;28;20279;-61
2022/09/21 08:38:24;;;;;;;7.07;1.40;;;13.20;99.90;;;;;;5074310;28;20044;-61
2022/09/21 08:40:51;;;;;;;8.50;1.90;;;13.20;99.90;;;;;;5059929;28;20040;-61
2022/09/21 08:43:33;;;;;;;7.55;1.70;;;13.30;99.90;;;;;;5055549;28;20073;-61
2022/09/21 08:46:00;;;;;;;9.82;1.90;;;13.40;99.90;;;;;;5074309;28;20074;-61
2022/09/21 08:48:31;;;;;;;5.57;1.23;;;13.50;99.90;;;;;;5093183;28;20046;-61
2022/09/21 08:51:02;;;;;;;5.38;1.88;;;13.50;99.90;;;;;;5065671;28;20072;-61
2022/09/21 08:53:44;;;;;;;8.68;2.50;;;13.60;99.90;;;;;;5076688;28;20047;-62
2022/09/21 08:56:12;;;;;;;8.25;1.98;;;13.60;99.90;;;;;;5059851;28;20044;-62
2022/09/21 08:58:41;;;;;;;9.90;1.60;;;13.70;99.90;;;;;;5086239;28;20518;-61
2022/09/21 09:01:18;;;;;;;8.40;1.85;;;13.70;99.90;;;;;;5072853;28;20044;-61
2022/09/21 09:04:32;;;;;;;5.68;1.45;;;13.80;99.90;;;;;;5075501;28;20370;-61
2022/09/21 09:07:37;;;;;;;6.88;1.33;;;13.80;99.90;;;;;;5086105;28;20043;-61
2022/09/21 09:10:32;;;;;;;5.60;1.48;;;13.90;99.90;;;;;;5030708;28;20063;-61
2022/09/21 09:13:33;;;;;;;3.58;1.30;;;13.90;99.90;;;;;;5094857;28;20048;-61
2022/09/21 09:16:29;;;;;;;6.90;1.50;;;14.00;99.90;;;;;;5072722;28;20041;-62
2022/09/21 09:19:48;;;;;;;7.00;1.20;;;14.00;99.90;;;;;;5076777;28;20501;-62
2022/09/21 09:22:20;;;;;;;8.98;1.70;;;14.10;99.90;;;;;;5040079;28;20052;-62
2022/09/21 09:24:48;;;;;;;4.97;1.45;;;14.20;99.90;;;;;;5068018;28;20047;-62
2022/09/21 09:27:29;;;;;;;6.03;1.73;;;14.30;99.90;;;;;;5083803;28;20032;-62
2022/09/21 09:30:01;;;;;;;6.68;1.60;;;14.30;99.90;;;;;;5076250;28;20063;-62
2022/09/21 09:32:42;;;;;;;6.20;1.35;;;14.40;99.90;;;;;;5089204;28;20036;-62
2022/09/21 09:35:48;;;;;;;6.35;1.80;;;14.40;99.90;;;;;;5093344;28;20038;-62
2022/09/21 09:38:36;;;;;;;;;;;14.60;99.90;;;;;;5039531;28;20048;-62
2022/09/21 09:41:30;;;;;;;4.28;1.15;;;14.60;99.90;;;;;;5093684;28;20284;-62
2022/09/21 09:44:16;;;;;;;4.85;1.45;;;14.70;99.90;;;;;;5076485;28;20461;-62
2022/09/21 09:47:00;;;;;;;8.27;1.48;;;14.70;99.90;;;;;;5083962;28;20036;-61
2022/09/21 09:49:51;;;;;;;6.22;1.23;;;14.70;99.90;;;;;;5073429;28;20127;-61
2022/09/21 09:52:17;;;;;;;6.72;1.05;;;14.80;99.90;;;;;;5088590;28;20054;-61
2022/09/21 09:54:43;;;;;;;6.63;1.35;;;14.90;99.90;;;;;;5087099;28;20037;-61
2022/09/21 09:57:10;;;;;;;5.30;1.50;;;15.00;99.90;;;;;;5072697;28;20404;-62
2022/09/21 09:59:40;;;;;;;6.15;1.55;;;15.10;99.90;;;;;;5066546;28;20400;-62
2022/09/21 10:02:16;;;;;;;4.68;1.00;;;15.20;99.90;;;;;;5093715;28;20539;-62
2022/09/21 10:04:57;;;;;;;5.63;1.30;;;15.20;99.90;;;;;;5075633;28;20394;-61
2022/09/21 10:07:37;;;;;;;8.90;1.85;;;15.30;99.90;;;;;;5094310;28;20421;-62
2022/09/21 10:10:31;;;;;;;6.82;1.70;;;15.30;99.90;;;;;;5093216;28;20185;-61
2022/09/21 10:13:28;;;;;;;6.50;1.48;;;15.40;99.90;;;;;;5073085;28;20508;-62
2022/09/21 10:15:57;;;;;;;6.88;1.90;;;15.40;99.90;;;;;;5055738;28;20048;-62
2022/09/21 10:18:25;;;;;;;4.97;1.27;;;15.50;99.90;;;;;;5067013;28;20051;-62
2022/09/21 10:21:00;;;;;;;7.90;1.33;;;15.50;99.90;;;;;;5078375;28;20040;-63
2022/09/21 10:23:29;;;;;;;5.47;1.17;;;15.50;99.90;;;;;;5052876;28;20494;-62
2022/09/21 10:26:09;;;;;;;3.85;1.35;;;15.60;99.90;;;;;;5050992;28;20041;-63
2022/09/21 10:28:35;;;;;;;5.18;1.10;;;15.60;99.90;;;;;;5039273;28;20055;-63
2022/09/21 10:31:22;;;;;;;4.53;0.93;;;15.60;99.90;;;;;;5062196;28;20084;-63
2022/09/21 10:34:14;;;;;;;4.25;1.77;;;15.50;99.90;;;;;;5049260;28;20052;-62
2022/09/21 10:36:41;;;;;;;3.08;0.82;;;15.40;99.60;;;;;;5050815;28;20053;-63
2022/09/21 10:39:23;;;;;;;5.50;0.88;;;15.40;99.60;;;;;;5050250;28;20052;-63
2022/09/21 10:41:52;;;;;;;2.75;0.85;;;15.40;99.90;;;;;;5066179;28;20124;-63
2022/09/21 10:44:20;;;;;;;3.63;1.20;;;15.40;99.20;;;;;;5051406;28;20033;-63
2022/09/21 10:46:47;;;;;;;3.70;0.82;;;15.50;99.20;;;;;;5062077;28;20036;-63
2022/09/21 10:49:22;;;;;;;3.90;0.88;;;15.50;99.00;;;;;;5035498;28;20040;-63
2022/09/21 10:51:50;;;;;;;4.47;0.90;;;15.60;98.80;;;;;;5080922;28;20068;-64
2022/09/21 10:54:22;;;;;;;3.85;1.40;;;15.60;99.90;;;;;;5066615;28;20037;-66
2022/09/21 10:57:08;;;;;;;4.95;1.10;;;15.60;99.90;;;;;;5052357;28;20045;-63
2022/09/21 10:59:36;;;;;;;6.75;1.40;;;15.60;99.90;;;;;;5071038;28;20040;-63
2022/09/21 11:02:22;;;;;;;5.45;1.50;;;15.50;99.90;;;;;;5072527;28;20090;-63
2022/09/21 11:04:52;;;;;;;6.70;1.52;;;15.50;99.90;;;;;;5070853;28;20142;-63
2022/09/21 11:07:31;;;;;;;6.47;1.40;;;15.50;99.90;;;;;;5070876;28;20044;-63
2022/09/21 11:10:01;;;;;;;4.93;1.23;;;15.60;99.90;;;;;;5071130;28;20044;-63
2022/09/21 11:12:30;;;;;;;5.15;1.20;;;15.60;99.90;;;;;;5073132;28;20044;-63
2022/09/21 11:15:19;;;;;;;11.63;1.80;;;15.50;99.90;;;;;;5070370;28;20123;-63
2022/09/21 11:17:51;;;;;;;7.25;1.83;;;15.40;99.90;;;;;;5070845;28;20044;-63
2022/09/21 11:20:41;;;;;;;6.45;1.70;;;15.40;99.90;;;;;;5070976;28;20549;-63
2022/09/21 11:23:23;;;;;;;3.88;1.42;;;15.30;99.90;;;;;;5086263;28;20080;-63
2022/09/21 11:26:22;;;;;;;9.95;1.15;;;15.30;99.90;;;;;;5074136;28;20500;-63
2022/09/21 11:28:59;;;;;;;5.32;1.08;;;15.30;99.90;;;;;;5091736;28;20054;-63
2022/09/21 11:32:06;;;;;;;3.70;0.80;;;15.40;99.90;;;;;;5074961;28;20365;-63
2022/09/21 11:35:01;;;;;;;5.60;1.17;;;15.50;99.90;;;;;;5078091;28;20047;-63
2022/09/21 11:37:45;;;;;;;5.30;1.17;;;15.60;99.90;;;;;;5003769;28;20141;-63
2022/09/21 11:40:56;;;;;;;4.38;0.98;;;15.70;99.90;;;;;;5074776;28;20032;-63
2022/09/21 11:43:40;;;;;;;2.85;1.02;;;15.80;99.90;;;;;;5074552;28;20075;-63
2022/09/21 11:46:32;;;;;;;4.13;1.10;;;15.90;99.20;;;;;;5091983;28;20076;-63
2022/09/21 11:49:13;;;;;;;3.83;0.90;;;15.90;99.60;;;;;;5073145;28;20431;-63
2022/09/21 11:51:51;;;;;;;3.97;1.02;;;15.90;98.40;;;;;;5074808;28;20032;-63
2022/09/21 11:54:35;;;;;;;5.28;0.95;;;15.90;97.60;;;;;;5074767;28;20048;-63
2022/09/21 11:57:22;;;;;;;3.92;1.35;;;16.00;96.30;;;;;;5073182;28;20040;-63
2022/09/21 12:00:02;;;;;;;6.68;1.20;;;16.10;95.40;;;;;;5073688;28;20040;-63
2022/09/21 12:03:06;;;;;;;5.85;1.10;;;16.10;95.50;;;;;;5091807;28;20040;-63
2022/09/21 12:05:41;;;;;;;4.80;1.10;;;16.20;94.60;;;;;;5092289;28;20058;-63
2022/09/21 12:08:29;;;;;;;2.38;0.65;;;16.20;94.80;;;;;;5091867;28;20401;-63
2022/09/21 12:11:16;;;;;;;3.95;1.25;;;16.30;93.90;;;;;;5072963;28;20127;-63
2022/09/21 12:13:49;;;;;;;4.68;1.05;;;16.30;93.10;;;;;;5074150;28;20052;-63
2022/09/21 12:16:39;;;;;;;4.75;0.98;;;16.30;92.60;;;;;;5091372;28;20044;-63
2022/09/21 12:19:16;;;;;;;5.20;1.42;;;16.30;93.00;;;;;;5073678;28;20059;-63
2022/09/21 12:21:48;;;;;;;5.05;1.23;;;16.40;93.60;;;;;;5073934;28;20044;-64
2022/09/21 12:24:22;;;;;;;3.97;1.13;;;16.50;93.90;;;;;;5091418;28;20422;-63
2022/09/21 12:26:54;;;;;;;2.85;0.80;;;16.60;94.00;;;;;;5091834;28;20066;-63
2022/09/21 12:29:42;;;;;;;5.35;1.20;;;16.70;93.50;;;;;;5092158;28;20107;-63
2022/09/21 12:32:19;;;;;;;4.22;1.05;;;16.90;92.20;;;;;;5090953;28;20047;-63
2022/09/21 12:34:52;;;;;;;3.63;1.27;;;16.90;92.30;;;;;;5073954;28;20046;-63
2022/09/21 12:37:55;;;;;;;2.88;0.68;;;16.90;92.40;;;;;;5073392;28;20052;-64
2022/09/21 12:40:35;;;;;;;4.28;1.38;;;16.90;92.20;;;;;;5092157;28;20370;-63
2022/09/21 12:43:31;;;;;;;3.40;0.82;;;17.10;92.60;;;;;;5073221;28;20044;-63
2022/09/21 12:46:17;;;;;;;4.10;0.88;;;17.20;92.30;;;;;;5090852;28;20047;-63
2022/09/21 12:48:44;;;;;;;3.58;0.77;;;17.30;92.50;;;;;;5090195;28;20051;-63
2022/09/21 12:51:23;;;;;;;12.55;1.45;;;17.30;91.70;;;;;;5074122;28;20048;-63
2022/09/21 12:53:51;;;;;;;2.83;0.73;;;17.30;91.80;;;;;;5091561;28;20114;-63
2022/09/21 12:56:52;;;;;;;3.15;0.82;;;17.40;91.70;;;;;;5074051;28;20123;-63
2022/09/21 12:59:23;;;;;;;2.90;0.85;;;17.40;91.40;;;;;;5095033;28;20165;-63
2022/09/21 13:01:55;;;;;;;5.07;1.10;;;17.50;91.10;;;;;;5095045;28;20040;-63
2022/09/21 13:04:23;;;;;;;2.92;0.88;;;17.50;90.50;;;;;;5095556;28;20123;-63
2022/09/21 13:07:11;;;;;;;3.33;1.00;;;17.50;90.90;;;;;;5075985;28;20397;-63
2022/09/21 13:09:42;;;;;;;2.28;0.90;;;17.60;90.50;;;;;;5095437;28;20036;-63
2022/09/21 13:12:12;;;;;;;2.53;0.80;;;17.60;90.00;;;;;;5094891;28;20051;-64
2022/09/21 13:14:43;;;;;;;4.55;1.40;;;17.60;90.30;;;;;;5095138;28;20473;-63
2022/09/21 13:17:25;;;;;;;3.50;0.80;;;17.70;88.30;;;;;;5076901;28;20048;-63
2022/09/21 13:20:15;;;;;;;4.90;1.08;;;17.70;87.20;;;;;;5075903;28;20047;-63
2022/09/21 13:22:41;;;;;;;5.03;0.80;;;17.70;87.90;;;;;;5077071;28;20060;-63
2022/09/21 13:25:20;;;;;;;3.15;0.77;;;17.70;89.10;;;;;;5094671;28;20044;-64
2022/09/21 13:28:08;;;;;;;2.60;1.00;;;17.70;88.60;;;;;;5075862;28;20051;-63
2022/09/21 13:30:37;;;;;;;4.88;1.20;;;17.70;86.40;;;;;;5077027;28;20052;-63
2022/09/21 13:33:18;;;;;;;3.50;1.00;;;17.70;86.80;;;;;;5094390;28;20035;-64
2022/09/21 13:35:46;;;;;;;3.30;1.40;;;17.70;82.80;;;;;;5094467;28;20044;-63
2022/09/21 13:38:24;;;;;;;5.78;1.83;;;17.80;84.70;;;;;;5094883;28;20485;-64
2022/09/21 13:41:03;;;;;;;5.47;1.33;;;17.70;81.60;;;;;;5093417;28;20040;-64
2022/09/21 13:43:58;;;;;;;4.85;1.10;;;17.70;82.20;;;;;;5076577;28;20047;-63
2022/09/21 13:46:49;;;;;;;3.83;0.90;;;17.70;81.60;;;;;;5076932;28;20036;-63
2022/09/21 13:49:14;;;;;;;2.63;0.90;;;17.70;82.70;;;;;;5080779;28;20117;-64
2022/09/21 13:52:10;;;;;;;2.40;0.80;;;17.60;83.90;;;;;;5076832;28;20047;-64
2022/09/21 13:55:03;;;;;;;3.35;1.10;;;17.70;83.20;;;;;;5093865;28;20043;-63
2022/09/21 13:57:36;;;;;;;3.13;0.80;;;17.70;84.90;;;;;;5076574;28;20055;-63
2022/09/21 14:00:11;;;;;;;3.72;0.95;;;17.70;83.70;;;;;;5094023;28;20165;-64
2022/09/21 14:02:56;;;;;;;5.13;1.15;;;17.70;84.00;;;;;;5074589;28;20127;-63
2022/09/21 14:05:44;;;;;;;6.85;0.80;;;17.60;82.40;;;;;;5064166;28;20048;-63
2022/09/21 14:08:22;;;;;;;3.88;1.10;;;17.60;82.00;;;;;;5065547;28;20494;-61
2022/09/21 14:11:03;;;;;;;5.07;1.27;;;17.60;82.80;;;;;;5092552;28;20101;-63